sensor_id;sensor_type;location;lat;lon;timestamp;P1;durP1;ratioP1;P2;durP2;ratioP2
61840;SDS011;47773;53.174;6.614;2022-08-24T00:00:55;37.95;;;27.25;;
61840;SDS011;47773;53.174;6.614;2022-08-24T00:03:21;35.95;;;27.20;;
61840;SDS011;47773;53.174;6.614;2022-08-24T00:05:47;42.05;;;27.45;;
61840;SDS011;47773;53.174;6.614;2022-08-24T00:08:14;35.15;;;25.98;;
61840;SDS011;47773;53.174;6.614;2022-08-24T00:10:40;40.58;;;27.73;;
61840;SDS011;47773;53.174;6.614;2022-08-24T00:13:05;38.80;;;27.30;;
61840;SDS011;47773;53.174;6.614;2022-08-24T00:15:31;38.80;;;27.98;;
61840;SDS011;47773;53.174;6.614;2022-08-24T00:17:57;37.03;;;27.00;;
61840;SDS011;47773;53.174;6.614;2022-08-24T00:20:23;37.30;;;27.90;;
61840;SDS011;47773;53.174;6.614;2022-08-24T00:22:50;39.58;;;28.13;;
61840;SDS011;47773;53.174;6.614;2022-08-24T00:25:16;39.58;;;27.27;;
61840;SDS011;47773;53.174;6.614;2022-08-24T00:27:43;39.83;;;29.58;;
61840;SDS011;47773;53.174;6.614;2022-08-24T00:30:11;38.28;;;27.88;;
61840;SDS011;47773;53.174;6.614;2022-08-24T00:32:39;39.58;;;28.83;;
61840;SDS011;47773;53.174;6.614;2022-08-24T00:35:06;39.58;;;29.92;;
61840;SDS011;47773;53.174;6.614;2022-08-24T00:37:32;40.28;;;27.42;;
61840;SDS011;47773;53.174;6.614;2022-08-24T00:39:58;35.45;;;25.50;;
61840;SDS011;47773;53.174;6.614;2022-08-24T00:42:24;35.58;;;25.33;;
61840;SDS011;47773;53.174;6.614;2022-08-24T00:44:50;37.88;;;26.92;;
61840;SDS011;47773;53.174;6.614;2022-08-24T00:47:20;37.88;;;27.23;;
61840;SDS011;47773;53.174;6.614;2022-08-24T00:52:21;35.35;;;26.30;;
61840;SDS011;47773;53.174;6.614;2022-08-24T00:55:00;34.15;;;24.27;;
61840;SDS011;47773;53.174;6.614;2022-08-24T00:57:32;35.80;;;25.42;;
61840;SDS011;47773;53.174;6.614;2022-08-24T01:00:08;36.90;;;25.88;;
61840;SDS011;47773;53.174;6.614;2022-08-24T01:02:39;37.95;;;25.92;;
61840;SDS011;47773;53.174;6.614;2022-08-24T01:05:09;33.90;;;25.52;;
61840;SDS011;47773;53.174;6.614;2022-08-24T01:07:36;35.03;;;25.70;;
61840;SDS011;47773;53.174;6.614;2022-08-24T01:10:07;32.95;;;25.88;;
61840;SDS011;47773;53.174;6.614;2022-08-24T01:12:40;35.92;;;24.88;;
61840;SDS011;47773;53.174;6.614;2022-08-24T01:15:08;33.30;;;24.60;;
61840;SDS011;47773;53.174;6.614;2022-08-24T01:17:36;39.10;;;26.15;;
61840;SDS011;47773;53.174;6.614;2022-08-24T01:20:21;32.83;;;24.98;;
61840;SDS011;47773;53.174;6.614;2022-08-24T01:25:41;34.42;;;27.08;;
61840;SDS011;47773;53.174;6.614;2022-08-24T01:28:15;36.00;;;26.10;;
61840;SDS011;47773;53.174;6.614;2022-08-24T01:30:44;34.00;;;25.42;;
61840;SDS011;47773;53.174;6.614;2022-08-24T01:33:11;32.70;;;25.58;;
61840;SDS011;47773;53.174;6.614;2022-08-24T01:35:53;32.63;;;24.33;;
61840;SDS011;47773;53.174;6.614;2022-08-24T01:38:23;38.00;;;26.55;;
61840;SDS011;47773;53.174;6.614;2022-08-24T01:40:52;32.45;;;24.60;;
61840;SDS011;47773;53.174;6.614;2022-08-24T01:43:21;34.95;;;25.40;;
61840;SDS011;47773;53.174;6.614;2022-08-24T01:45:48;35.42;;;26.23;;
61840;SDS011;47773;53.174;6.614;2022-08-24T01:48:14;34.30;;;25.70;;
61840;SDS011;47773;53.174;6.614;2022-08-24T01:50:40;37.92;;;26.17;;
61840;SDS011;47773;53.174;6.614;2022-08-24T01:53:06;37.17;;;26.08;;
61840;SDS011;47773;53.174;6.614;2022-08-24T01:55:32;36.85;;;25.48;;
61840;SDS011;47773;53.174;6.614;2022-08-24T01:57:59;33.28;;;24.58;;
61840;SDS011;47773;53.174;6.614;2022-08-24T02:00:25;32.25;;;25.73;;
61840;SDS011;47773;53.174;6.614;2022-08-24T02:02:51;37.47;;;25.25;;
61840;SDS011;47773;53.174;6.614;2022-08-24T02:05:17;33.45;;;24.88;;
61840;SDS011;47773;53.174;6.614;2022-08-24T02:07:43;30.48;;;23.88;;
61840;SDS011;47773;53.174;6.614;2022-08-24T02:10:10;31.75;;;23.92;;
61840;SDS011;47773;53.174;6.614;2022-08-24T02:12:39;35.28;;;25.42;;
61840;SDS011;47773;53.174;6.614;2022-08-24T02:15:07;30.05;;;23.55;;
61840;SDS011;47773;53.174;6.614;2022-08-24T02:17:35;30.80;;;24.00;;
61840;SDS011;47773;53.174;6.614;2022-08-24T02:20:01;32.28;;;22.85;;
61840;SDS011;47773;53.174;6.614;2022-08-24T02:22:29;33.05;;;23.10;;
61840;SDS011;47773;53.174;6.614;2022-08-24T02:24:54;33.45;;;26.27;;
61840;SDS011;47773;53.174;6.614;2022-08-24T02:29:52;33.90;;;24.75;;
61840;SDS011;47773;53.174;6.614;2022-08-24T02:32:17;36.42;;;26.13;;
61840;SDS011;47773;53.174;6.614;2022-08-24T02:34:43;34.85;;;26.00;;
61840;SDS011;47773;53.174;6.614;2022-08-24T02:37:08;30.80;;;24.27;;
61840;SDS011;47773;53.174;6.614;2022-08-24T02:39:34;32.83;;;24.08;;
61840;SDS011;47773;53.174;6.614;2022-08-24T02:42:00;33.20;;;24.42;;
61840;SDS011;47773;53.174;6.614;2022-08-24T02:44:26;35.58;;;24.38;;
61840;SDS011;47773;53.174;6.614;2022-08-24T02:46:51;30.83;;;23.85;;
61840;SDS011;47773;53.174;6.614;2022-08-24T02:49:18;36.58;;;25.98;;
61840;SDS011;47773;53.174;6.614;2022-08-24T02:51:45;37.10;;;25.55;;
61840;SDS011;47773;53.174;6.614;2022-08-24T02:54:12;37.60;;;27.35;;
61840;SDS011;47773;53.174;6.614;2022-08-24T02:56:41;33.05;;;25.27;;
61840;SDS011;47773;53.174;6.614;2022-08-24T02:59:08;35.75;;;25.92;;
61840;SDS011;47773;53.174;6.614;2022-08-24T03:01:33;36.53;;;25.95;;
61840;SDS011;47773;53.174;6.614;2022-08-24T03:03:59;33.00;;;25.00;;
61840;SDS011;47773;53.174;6.614;2022-08-24T03:06:25;36.40;;;25.52;;
61840;SDS011;47773;53.174;6.614;2022-08-24T03:08:50;31.30;;;25.27;;
61840;SDS011;47773;53.174;6.614;2022-08-24T03:11:16;29.90;;;24.30;;
61840;SDS011;47773;53.174;6.614;2022-08-24T03:13:41;38.20;;;26.73;;
61840;SDS011;47773;53.174;6.614;2022-08-24T03:16:07;32.58;;;25.55;;
61840;SDS011;47773;53.174;6.614;2022-08-24T03:18:33;35.78;;;26.52;;
61840;SDS011;47773;53.174;6.614;2022-08-24T03:20:59;38.60;;;26.30;;
61840;SDS011;47773;53.174;6.614;2022-08-24T03:23:26;33.28;;;25.92;;
61840;SDS011;47773;53.174;6.614;2022-08-24T03:25:53;33.75;;;26.90;;
61840;SDS011;47773;53.174;6.614;2022-08-24T03:28:19;37.40;;;26.80;;
61840;SDS011;47773;53.174;6.614;2022-08-24T03:30:46;34.88;;;25.75;;
61840;SDS011;47773;53.174;6.614;2022-08-24T03:33:12;34.40;;;26.65;;
61840;SDS011;47773;53.174;6.614;2022-08-24T03:35:38;32.42;;;24.90;;
61840;SDS011;47773;53.174;6.614;2022-08-24T03:38:04;35.03;;;26.45;;
61840;SDS011;47773;53.174;6.614;2022-08-24T03:40:30;37.75;;;25.48;;
61840;SDS011;47773;53.174;6.614;2022-08-24T03:42:57;31.65;;;24.73;;
61840;SDS011;47773;53.174;6.614;2022-08-24T03:45:23;40.28;;;26.40;;
61840;SDS011;47773;53.174;6.614;2022-08-24T03:47:49;35.47;;;26.40;;
61840;SDS011;47773;53.174;6.614;2022-08-24T03:50:15;38.80;;;27.55;;
61840;SDS011;47773;53.174;6.614;2022-08-24T03:52:41;36.97;;;25.58;;
61840;SDS011;47773;53.174;6.614;2022-08-24T03:55:07;33.83;;;25.33;;
61840;SDS011;47773;53.174;6.614;2022-08-24T03:57:33;35.00;;;24.60;;
61840;SDS011;47773;53.174;6.614;2022-08-24T03:59:59;36.65;;;26.25;;
61840;SDS011;47773;53.174;6.614;2022-08-24T04:02:26;35.20;;;26.17;;
61840;SDS011;47773;53.174;6.614;2022-08-24T04:04:52;35.95;;;25.90;;
61840;SDS011;47773;53.174;6.614;2022-08-24T04:07:18;36.78;;;25.75;;
61840;SDS011;47773;53.174;6.614;2022-08-24T04:09:43;34.08;;;24.30;;
61840;SDS011;47773;53.174;6.614;2022-08-24T04:12:09;34.35;;;25.85;;
61840;SDS011;47773;53.174;6.614;2022-08-24T04:14:35;34.85;;;25.83;;
61840;SDS011;47773;53.174;6.614;2022-08-24T04:17:01;36.60;;;26.10;;
61840;SDS011;47773;53.174;6.614;2022-08-24T04:19:28;33.28;;;25.90;;
61840;SDS011;47773;53.174;6.614;2022-08-24T04:21:54;33.40;;;25.05;;
61840;SDS011;47773;53.174;6.614;2022-08-24T04:24:21;34.63;;;24.00;;
61840;SDS011;47773;53.174;6.614;2022-08-24T04:26:47;35.75;;;24.45;;
61840;SDS011;47773;53.174;6.614;2022-08-24T04:29:13;33.70;;;23.95;;
61840;SDS011;47773;53.174;6.614;2022-08-24T04:31:41;32.80;;;25.13;;
61840;SDS011;47773;53.174;6.614;2022-08-24T04:34:07;34.00;;;24.80;;
61840;SDS011;47773;53.174;6.614;2022-08-24T04:36:34;37.17;;;25.55;;
61840;SDS011;47773;53.174;6.614;2022-08-24T04:39:00;37.03;;;26.13;;
61840;SDS011;47773;53.174;6.614;2022-08-24T04:41:26;32.03;;;25.38;;
61840;SDS011;47773;53.174;6.614;2022-08-24T04:43:52;34.20;;;24.60;;
61840;SDS011;47773;53.174;6.614;2022-08-24T04:46:18;33.55;;;24.13;;
61840;SDS011;47773;53.174;6.614;2022-08-24T04:48:45;34.88;;;23.98;;
61840;SDS011;47773;53.174;6.614;2022-08-24T04:51:14;33.17;;;24.15;;
61840;SDS011;47773;53.174;6.614;2022-08-24T04:53:42;34.80;;;23.75;;
61840;SDS011;47773;53.174;6.614;2022-08-24T04:56:16;33.03;;;24.13;;
61840;SDS011;47773;53.174;6.614;2022-08-24T04:58:48;31.08;;;23.23;;
61840;SDS011;47773;53.174;6.614;2022-08-24T05:01:16;29.88;;;22.75;;
61840;SDS011;47773;53.174;6.614;2022-08-24T05:03:44;31.65;;;24.10;;
61840;SDS011;47773;53.174;6.614;2022-08-24T05:06:12;37.55;;;23.40;;
61840;SDS011;47773;53.174;6.614;2022-08-24T05:08:39;32.22;;;23.15;;
61840;SDS011;47773;53.174;6.614;2022-08-24T05:11:05;31.20;;;23.30;;
61840;SDS011;47773;53.174;6.614;2022-08-24T05:13:32;32.80;;;23.67;;
61840;SDS011;47773;53.174;6.614;2022-08-24T05:15:59;34.78;;;24.08;;
61840;SDS011;47773;53.174;6.614;2022-08-24T05:18:24;32.58;;;23.95;;
61840;SDS011;47773;53.174;6.614;2022-08-24T05:20:53;32.92;;;23.60;;
61840;SDS011;47773;53.174;6.614;2022-08-24T05:23:19;31.55;;;23.73;;
61840;SDS011;47773;53.174;6.614;2022-08-24T05:25:46;33.63;;;23.90;;
61840;SDS011;47773;53.174;6.614;2022-08-24T05:28:11;32.03;;;23.25;;
61840;SDS011;47773;53.174;6.614;2022-08-24T05:30:37;34.25;;;23.80;;
61840;SDS011;47773;53.174;6.614;2022-08-24T05:33:03;30.40;;;21.23;;
61840;SDS011;47773;53.174;6.614;2022-08-24T05:35:28;30.75;;;23.00;;
61840;SDS011;47773;53.174;6.614;2022-08-24T05:37:54;29.95;;;23.58;;
61840;SDS011;47773;53.174;6.614;2022-08-24T05:40:20;34.50;;;23.55;;
61840;SDS011;47773;53.174;6.614;2022-08-24T05:42:47;33.35;;;24.70;;
61840;SDS011;47773;53.174;6.614;2022-08-24T05:45:12;30.65;;;23.25;;
61840;SDS011;47773;53.174;6.614;2022-08-24T05:47:38;33.58;;;23.73;;
61840;SDS011;47773;53.174;6.614;2022-08-24T05:50:04;34.35;;;25.02;;
61840;SDS011;47773;53.174;6.614;2022-08-24T05:52:31;36.75;;;24.83;;
61840;SDS011;47773;53.174;6.614;2022-08-24T05:54:59;34.65;;;24.00;;
61840;SDS011;47773;53.174;6.614;2022-08-24T05:57:25;40.35;;;24.80;;
61840;SDS011;47773;53.174;6.614;2022-08-24T05:59:54;34.55;;;25.17;;
61840;SDS011;47773;53.174;6.614;2022-08-24T06:02:20;38.90;;;26.38;;
61840;SDS011;47773;53.174;6.614;2022-08-24T06:04:47;34.72;;;25.58;;
61840;SDS011;47773;53.174;6.614;2022-08-24T06:07:13;34.10;;;25.88;;
61840;SDS011;47773;53.174;6.614;2022-08-24T06:09:39;36.50;;;27.73;;
61840;SDS011;47773;53.174;6.614;2022-08-24T06:12:05;37.80;;;27.98;;
61840;SDS011;47773;53.174;6.614;2022-08-24T06:14:33;39.05;;;27.30;;
61840;SDS011;47773;53.174;6.614;2022-08-24T06:17:00;40.85;;;25.92;;
61840;SDS011;47773;53.174;6.614;2022-08-24T06:19:29;39.15;;;25.65;;
61840;SDS011;47773;53.174;6.614;2022-08-24T06:21:54;37.30;;;25.00;;
61840;SDS011;47773;53.174;6.614;2022-08-24T06:24:21;35.28;;;26.13;;
61840;SDS011;47773;53.174;6.614;2022-08-24T06:27:06;39.08;;;26.73;;
61840;SDS011;47773;53.174;6.614;2022-08-24T06:29:51;38.47;;;27.13;;
61840;SDS011;47773;53.174;6.614;2022-08-24T06:32:17;41.60;;;27.88;;
61840;SDS011;47773;53.174;6.614;2022-08-24T06:34:43;37.38;;;28.02;;
61840;SDS011;47773;53.174;6.614;2022-08-24T06:37:09;36.88;;;27.10;;
61840;SDS011;47773;53.174;6.614;2022-08-24T06:39:34;35.30;;;27.48;;
61840;SDS011;47773;53.174;6.614;2022-08-24T06:42:00;40.47;;;25.30;;
61840;SDS011;47773;53.174;6.614;2022-08-24T06:44:25;30.83;;;23.73;;
61840;SDS011;47773;53.174;6.614;2022-08-24T06:46:51;38.33;;;24.63;;
61840;SDS011;47773;53.174;6.614;2022-08-24T06:49:17;38.30;;;25.58;;
61840;SDS011;47773;53.174;6.614;2022-08-24T06:51:43;32.47;;;24.08;;
61840;SDS011;47773;53.174;6.614;2022-08-24T06:54:09;35.67;;;23.27;;
61840;SDS011;47773;53.174;6.614;2022-08-24T06:56:36;31.88;;;23.20;;
61840;SDS011;47773;53.174;6.614;2022-08-24T06:59:02;30.83;;;22.30;;
61840;SDS011;47773;53.174;6.614;2022-08-24T07:01:28;33.95;;;23.90;;
61840;SDS011;47773;53.174;6.614;2022-08-24T07:03:54;31.00;;;22.23;;
61840;SDS011;47773;53.174;6.614;2022-08-24T07:06:21;29.05;;;20.73;;
61840;SDS011;47773;53.174;6.614;2022-08-24T07:08:48;26.77;;;19.65;;
61840;SDS011;47773;53.174;6.614;2022-08-24T07:11:14;20.30;;;16.63;;
61840;SDS011;47773;53.174;6.614;2022-08-24T07:13:42;16.27;;;12.50;;
61840;SDS011;47773;53.174;6.614;2022-08-24T07:16:08;17.67;;;11.93;;
61840;SDS011;47773;53.174;6.614;2022-08-24T07:18:35;17.35;;;10.73;;
61840;SDS011;47773;53.174;6.614;2022-08-24T07:21:01;15.60;;;10.48;;
61840;SDS011;47773;53.174;6.614;2022-08-24T07:23:27;13.15;;;9.80;;
61840;SDS011;47773;53.174;6.614;2022-08-24T07:25:53;17.33;;;9.88;;
61840;SDS011;47773;53.174;6.614;2022-08-24T07:28:19;14.77;;;9.63;;
61840;SDS011;47773;53.174;6.614;2022-08-24T07:30:44;14.23;;;9.52;;
61840;SDS011;47773;53.174;6.614;2022-08-24T07:33:11;10.75;;;7.72;;
61840;SDS011;47773;53.174;6.614;2022-08-24T07:35:37;14.85;;;7.40;;
61840;SDS011;47773;53.174;6.614;2022-08-24T07:38:03;16.33;;;7.35;;
61840;SDS011;47773;53.174;6.614;2022-08-24T07:40:30;11.68;;;7.88;;
61840;SDS011;47773;53.174;6.614;2022-08-24T07:42:58;12.68;;;7.57;;
61840;SDS011;47773;53.174;6.614;2022-08-24T07:45:24;14.73;;;7.32;;
61840;SDS011;47773;53.174;6.614;2022-08-24T07:47:53;14.48;;;7.95;;
61840;SDS011;47773;53.174;6.614;2022-08-24T07:50:19;14.68;;;8.35;;
61840;SDS011;47773;53.174;6.614;2022-08-24T07:52:45;13.15;;;8.25;;
61840;SDS011;47773;53.174;6.614;2022-08-24T07:55:11;15.85;;;9.00;;
61840;SDS011;47773;53.174;6.614;2022-08-24T07:57:38;11.45;;;7.80;;
61840;SDS011;47773;53.174;6.614;2022-08-24T08:00:05;12.55;;;8.68;;
61840;SDS011;47773;53.174;6.614;2022-08-24T08:02:32;18.00;;;9.73;;
61840;SDS011;47773;53.174;6.614;2022-08-24T08:04:58;14.10;;;8.82;;
61840;SDS011;47773;53.174;6.614;2022-08-24T08:07:24;12.55;;;8.32;;
61840;SDS011;47773;53.174;6.614;2022-08-24T08:09:50;14.82;;;8.25;;
61840;SDS011;47773;53.174;6.614;2022-08-24T08:12:16;14.77;;;8.30;;
61840;SDS011;47773;53.174;6.614;2022-08-24T08:14:43;12.98;;;8.13;;
61840;SDS011;47773;53.174;6.614;2022-08-24T08:17:09;9.55;;;6.40;;
61840;SDS011;47773;53.174;6.614;2022-08-24T08:19:35;9.93;;;6.95;;
61840;SDS011;47773;53.174;6.614;2022-08-24T08:22:01;15.80;;;7.43;;
61840;SDS011;47773;53.174;6.614;2022-08-24T08:24:46;11.43;;;6.70;;
61840;SDS011;47773;53.174;6.614;2022-08-24T08:27:12;15.85;;;7.05;;
61840;SDS011;47773;53.174;6.614;2022-08-24T08:29:40;10.68;;;6.30;;
61840;SDS011;47773;53.174;6.614;2022-08-24T08:32:07;14.82;;;6.72;;
61840;SDS011;47773;53.174;6.614;2022-08-24T08:34:33;12.00;;;7.07;;
61840;SDS011;47773;53.174;6.614;2022-08-24T08:36:59;8.75;;;6.55;;
61840;SDS011;47773;53.174;6.614;2022-08-24T08:39:26;20.02;;;9.07;;
61840;SDS011;47773;53.174;6.614;2022-08-24T08:44:50;13.60;;;7.75;;
61840;SDS011;47773;53.174;6.614;2022-08-24T08:50:20;18.27;;;6.93;;
61840;SDS011;47773;53.174;6.614;2022-08-24T09:01:43;11.15;;;5.70;;
61840;SDS011;47773;53.174;6.614;2022-08-24T09:04:44;13.27;;;5.68;;
61840;SDS011;47773;53.174;6.614;2022-08-24T09:12:49;14.93;;;5.30;;
61840;SDS011;47773;53.174;6.614;2022-08-24T09:24:09;9.35;;;4.30;;
61840;SDS011;47773;53.174;6.614;2022-08-24T09:32:15;9.48;;;4.40;;
61840;SDS011;47773;53.174;6.614;2022-08-24T09:35:24;10.55;;;6.20;;
61840;SDS011;47773;53.174;6.614;2022-08-24T09:49:59;10.68;;;4.03;;
61840;SDS011;47773;53.174;6.614;2022-08-24T09:52:48;12.20;;;4.10;;
61840;SDS011;47773;53.174;6.614;2022-08-24T09:58:40;9.25;;;4.53;;
61840;SDS011;47773;53.174;6.614;2022-08-24T10:04:24;11.02;;;4.10;;
61840;SDS011;47773;53.174;6.614;2022-08-24T10:07:04;11.60;;;4.72;;
61840;SDS011;47773;53.174;6.614;2022-08-24T10:12:49;9.95;;;4.68;;
61840;SDS011;47773;53.174;6.614;2022-08-24T10:15:22;9.73;;;4.65;;
61840;SDS011;47773;53.174;6.614;2022-08-24T10:33:16;7.07;;;3.92;;
61840;SDS011;47773;53.174;6.614;2022-08-24T10:38:33;6.82;;;3.15;;
61840;SDS011;47773;53.174;6.614;2022-08-24T10:44:36;10.27;;;3.67;;
61840;SDS011;47773;53.174;6.614;2022-08-24T10:47:19;7.03;;;3.30;;
61840;SDS011;47773;53.174;6.614;2022-08-24T10:52:49;8.75;;;3.50;;
61840;SDS011;47773;53.174;6.614;2022-08-24T10:55:29;7.85;;;3.72;;
61840;SDS011;47773;53.174;6.614;2022-08-24T10:58:05;7.65;;;3.25;;
61840;SDS011;47773;53.174;6.614;2022-08-24T11:00:37;5.87;;;2.87;;
61840;SDS011;47773;53.174;6.614;2022-08-24T11:03:05;7.20;;;2.80;;
61840;SDS011;47773;53.174;6.614;2022-08-24T11:05:44;6.65;;;2.65;;
61840;SDS011;47773;53.174;6.614;2022-08-24T11:08:18;9.15;;;2.75;;
61840;SDS011;47773;53.174;6.614;2022-08-24T11:11:03;6.22;;;2.33;;
61840;SDS011;47773;53.174;6.614;2022-08-24T11:13:34;6.40;;;2.72;;
61840;SDS011;47773;53.174;6.614;2022-08-24T11:16:02;8.23;;;3.38;;
61840;SDS011;47773;53.174;6.614;2022-08-24T11:18:50;5.50;;;2.40;;
61840;SDS011;47773;53.174;6.614;2022-08-24T11:21:31;7.13;;;2.67;;
61840;SDS011;47773;53.174;6.614;2022-08-24T11:24:08;5.65;;;2.40;;
61840;SDS011;47773;53.174;6.614;2022-08-24T11:35:16;6.43;;;2.55;;
61840;SDS011;47773;53.174;6.614;2022-08-24T11:37:51;8.85;;;3.05;;
61840;SDS011;47773;53.174;6.614;2022-08-24T11:40:28;7.20;;;2.40;;
61840;SDS011;47773;53.174;6.614;2022-08-24T11:53:57;4.85;;;2.60;;
61840;SDS011;47773;53.174;6.614;2022-08-24T12:02:44;7.40;;;2.95;;
61840;SDS011;47773;53.174;6.614;2022-08-24T12:13:56;6.80;;;2.40;;
61840;SDS011;47773;53.174;6.614;2022-08-24T12:16:42;5.28;;;2.72;;
61840;SDS011;47773;53.174;6.614;2022-08-24T12:19:17;2.97;;;2.33;;
61840;SDS011;47773;53.174;6.614;2022-08-24T12:21:53;7.43;;;2.65;;
61840;SDS011;47773;53.174;6.614;2022-08-24T12:24:25;10.13;;;2.88;;
61840;SDS011;47773;53.174;6.614;2022-08-24T12:27:18;5.40;;;2.50;;
61840;SDS011;47773;53.174;6.614;2022-08-24T12:29:49;5.13;;;2.65;;
61840;SDS011;47773;53.174;6.614;2022-08-24T12:32:23;7.57;;;2.22;;
61840;SDS011;47773;53.174;6.614;2022-08-24T12:34:59;9.88;;;2.10;;
61840;SDS011;47773;53.174;6.614;2022-08-24T12:37:35;9.60;;;2.35;;
61840;SDS011;47773;53.174;6.614;2022-08-24T12:40:23;4.95;;;2.47;;
61840;SDS011;47773;53.174;6.614;2022-08-24T12:43:06;3.58;;;2.22;;
61840;SDS011;47773;53.174;6.614;2022-08-24T12:45:33;6.65;;;2.08;;
61840;SDS011;47773;53.174;6.614;2022-08-24T12:48:07;5.65;;;1.90;;
61840;SDS011;47773;53.174;6.614;2022-08-24T12:56:09;2.38;;;1.60;;
61840;SDS011;47773;53.174;6.614;2022-08-24T13:01:18;4.35;;;1.67;;
61840;SDS011;47773;53.174;6.614;2022-08-24T13:03:47;4.97;;;1.98;;
61840;SDS011;47773;53.174;6.614;2022-08-24T13:06:34;4.60;;;2.08;;
61840;SDS011;47773;53.174;6.614;2022-08-24T13:09:06;5.50;;;2.20;;
61840;SDS011;47773;53.174;6.614;2022-08-24T13:11:38;5.05;;;2.20;;
61840;SDS011;47773;53.174;6.614;2022-08-24T13:21:49;4.38;;;2.45;;
61840;SDS011;47773;53.174;6.614;2022-08-24T13:29:44;6.68;;;2.08;;
61840;SDS011;47773;53.174;6.614;2022-08-24T13:32:21;3.33;;;2.00;;
61840;SDS011;47773;53.174;6.614;2022-08-24T13:34:55;3.47;;;2.00;;
61840;SDS011;47773;53.174;6.614;2022-08-24T13:37:23;6.15;;;2.42;;
61840;SDS011;47773;53.174;6.614;2022-08-24T13:42:40;2.65;;;2.00;;
61840;SDS011;47773;53.174;6.614;2022-08-24T14:04:51;3.83;;;2.60;;
61840;SDS011;47773;53.174;6.614;2022-08-24T14:08:39;9.25;;;2.30;;
61840;SDS011;47773;53.174;6.614;2022-08-24T14:25:35;3.33;;;2.00;;
61840;SDS011;47773;53.174;6.614;2022-08-24T14:30:55;6.97;;;2.17;;
61840;SDS011;47773;53.174;6.614;2022-08-24T14:39:42;8.45;;;2.70;;
61840;SDS011;47773;53.174;6.614;2022-08-24T14:42:37;4.57;;;2.63;;
61840;SDS011;47773;53.174;6.614;2022-08-24T14:50:57;11.25;;;2.72;;
61840;SDS011;47773;53.174;6.614;2022-08-24T14:53:57;5.72;;;2.40;;
61840;SDS011;47773;53.174;6.614;2022-08-24T15:08:04;6.72;;;2.50;;
61840;SDS011;47773;53.174;6.614;2022-08-24T15:10:49;4.75;;;2.38;;
61840;SDS011;47773;53.174;6.614;2022-08-24T15:16:06;11.50;;;3.90;;
61840;SDS011;47773;53.174;6.614;2022-08-24T15:18:39;9.35;;;4.30;;
61840;SDS011;47773;53.174;6.614;2022-08-24T15:32:17;9.65;;;4.25;;
61840;SDS011;47773;53.174;6.614;2022-08-24T15:34:45;14.60;;;4.70;;
61840;SDS011;47773;53.174;6.614;2022-08-24T15:39:58;9.15;;;4.85;;
61840;SDS011;47773;53.174;6.614;2022-08-24T15:42:26;9.55;;;4.10;;
61840;SDS011;47773;53.174;6.614;2022-08-24T15:44:54;10.23;;;4.97;;
61840;SDS011;47773;53.174;6.614;2022-08-24T15:55:46;7.88;;;5.47;;
61840;SDS011;47773;53.174;6.614;2022-08-24T15:58:33;11.48;;;5.75;;
61840;SDS011;47773;53.174;6.614;2022-08-24T16:01:20;11.98;;;5.30;;
61840;SDS011;47773;53.174;6.614;2022-08-24T16:04:09;10.07;;;5.43;;
61840;SDS011;47773;53.174;6.614;2022-08-24T16:06:39;10.25;;;5.18;;
61840;SDS011;47773;53.174;6.614;2022-08-24T16:14:36;8.43;;;4.97;;
61840;SDS011;47773;53.174;6.614;2022-08-24T16:19:58;12.48;;;5.10;;
61840;SDS011;47773;53.174;6.614;2022-08-24T16:22:30;11.82;;;5.50;;
61840;SDS011;47773;53.174;6.614;2022-08-24T16:25:08;15.40;;;5.68;;
61840;SDS011;47773;53.174;6.614;2022-08-24T16:27:50;7.18;;;4.50;;
61840;SDS011;47773;53.174;6.614;2022-08-24T16:30:38;16.00;;;5.43;;
61840;SDS011;47773;53.174;6.614;2022-08-24T16:33:06;14.60;;;5.40;;
61840;SDS011;47773;53.174;6.614;2022-08-24T16:35:32;8.15;;;4.90;;
61840;SDS011;47773;53.174;6.614;2022-08-24T16:37:58;14.35;;;6.43;;
61840;SDS011;47773;53.174;6.614;2022-08-24T16:40:24;10.63;;;5.45;;
61840;SDS011;47773;53.174;6.614;2022-08-24T16:42:51;6.97;;;4.82;;
61840;SDS011;47773;53.174;6.614;2022-08-24T16:45:19;13.38;;;4.88;;
61840;SDS011;47773;53.174;6.614;2022-08-24T16:47:46;10.25;;;6.05;;
61840;SDS011;47773;53.174;6.614;2022-08-24T16:50:14;13.57;;;5.45;;
61840;SDS011;47773;53.174;6.614;2022-08-24T16:52:42;12.80;;;5.95;;
61840;SDS011;47773;53.174;6.614;2022-08-24T16:55:07;16.15;;;5.70;;
61840;SDS011;47773;53.174;6.614;2022-08-24T16:57:33;9.43;;;6.22;;
61840;SDS011;47773;53.174;6.614;2022-08-24T17:00:03;14.10;;;6.60;;
61840;SDS011;47773;53.174;6.614;2022-08-24T17:02:34;15.50;;;6.53;;
61840;SDS011;47773;53.174;6.614;2022-08-24T17:04:59;11.15;;;6.07;;
61840;SDS011;47773;53.174;6.614;2022-08-24T17:07:26;12.40;;;6.50;;
61840;SDS011;47773;53.174;6.614;2022-08-24T17:09:53;17.30;;;6.70;;
61840;SDS011;47773;53.174;6.614;2022-08-24T17:12:21;18.27;;;6.50;;
61840;SDS011;47773;53.174;6.614;2022-08-24T17:14:47;9.48;;;5.60;;
61840;SDS011;47773;53.174;6.614;2022-08-24T17:17:14;9.98;;;6.20;;
61840;SDS011;47773;53.174;6.614;2022-08-24T17:19:44;12.10;;;6.13;;
61840;SDS011;47773;53.174;6.614;2022-08-24T17:22:11;11.57;;;6.18;;
61840;SDS011;47773;53.174;6.614;2022-08-24T17:24:37;14.70;;;6.40;;
61840;SDS011;47773;53.174;6.614;2022-08-24T17:27:03;16.70;;;7.20;;
61840;SDS011;47773;53.174;6.614;2022-08-24T17:29:28;14.02;;;7.07;;
61840;SDS011;47773;53.174;6.614;2022-08-24T17:31:54;10.90;;;7.40;;
61840;SDS011;47773;53.174;6.614;2022-08-24T17:34:21;12.95;;;7.00;;
61840;SDS011;47773;53.174;6.614;2022-08-24T17:36:48;20.17;;;8.15;;
61840;SDS011;47773;53.174;6.614;2022-08-24T17:39:15;23.35;;;8.63;;
61840;SDS011;47773;53.174;6.614;2022-08-24T17:41:42;12.02;;;7.70;;
61840;SDS011;47773;53.174;6.614;2022-08-24T17:44:09;14.80;;;9.00;;
61840;SDS011;47773;53.174;6.614;2022-08-24T17:46:37;16.13;;;7.93;;
61840;SDS011;47773;53.174;6.614;2022-08-24T17:49:05;17.10;;;8.82;;
61840;SDS011;47773;53.174;6.614;2022-08-24T17:51:33;13.85;;;7.80;;
61840;SDS011;47773;53.174;6.614;2022-08-24T17:53:59;14.05;;;8.43;;
61840;SDS011;47773;53.174;6.614;2022-08-24T17:56:25;15.20;;;7.72;;
61840;SDS011;47773;53.174;6.614;2022-08-24T17:58:54;17.98;;;8.07;;
61840;SDS011;47773;53.174;6.614;2022-08-24T18:01:40;12.85;;;7.40;;
61840;SDS011;47773;53.174;6.614;2022-08-24T18:04:06;14.07;;;8.13;;
61840;SDS011;47773;53.174;6.614;2022-08-24T18:06:32;14.05;;;8.90;;
61840;SDS011;47773;53.174;6.614;2022-08-24T18:08:59;16.70;;;9.13;;
61840;SDS011;47773;53.174;6.614;2022-08-24T18:11:29;18.05;;;9.45;;
61840;SDS011;47773;53.174;6.614;2022-08-24T18:13:55;20.00;;;9.02;;
61840;SDS011;47773;53.174;6.614;2022-08-24T18:16:21;14.35;;;8.65;;
61840;SDS011;47773;53.174;6.614;2022-08-24T18:18:49;15.32;;;9.68;;
61840;SDS011;47773;53.174;6.614;2022-08-24T18:21:16;16.77;;;9.65;;
61840;SDS011;47773;53.174;6.614;2022-08-24T18:23:44;14.85;;;8.85;;
61840;SDS011;47773;53.174;6.614;2022-08-24T18:26:10;14.95;;;9.07;;
61840;SDS011;47773;53.174;6.614;2022-08-24T18:28:37;20.63;;;9.05;;
61840;SDS011;47773;53.174;6.614;2022-08-24T18:31:03;17.65;;;8.93;;
61840;SDS011;47773;53.174;6.614;2022-08-24T18:33:28;18.25;;;10.02;;
61840;SDS011;47773;53.174;6.614;2022-08-24T18:35:54;17.88;;;9.70;;
61840;SDS011;47773;53.174;6.614;2022-08-24T18:38:19;23.42;;;9.63;;
61840;SDS011;47773;53.174;6.614;2022-08-24T18:40:45;22.38;;;10.15;;
61840;SDS011;47773;53.174;6.614;2022-08-24T18:43:12;19.27;;;11.13;;
61840;SDS011;47773;53.174;6.614;2022-08-24T18:45:40;20.23;;;11.18;;